Latest Weather Observations for Winton

IDQ60801

Issued at 12:22 pm EST Thursday 1 October 2020 (issued every 10 minutes, with the page automatically refreshed every 10 minutes)

About weather observations | Map of weather stations | Latest weather observations for QLD | Other Formats
Station Details ID: 037039 Name: WINTON AIRPORT Lat: -22.36 Lon: 143.08 Height: 192.2 m
Data from the previous 72 hours. | See also: Recent months at Winton
Date/Time
EST
Temp
°C
App
Temp
°C
Dew
Point
°C
Rel
Hum
%
Delta-T
°C
Wind Press
QNH
hPa
Press
MSL
hPa
Rain since
9am
mm
Dir  Spd
km/h
Gust
km/h
Spd
kts
Gust
kts
01/12:00pm 32.5 30.4 6.7 20 14.1 ESE 7 13 4 7 1016.4 1015.2 0.0
01/11:30am 31.4 29.6 7.8 23 13.1 SE 7 19 4 10 1016.8 1015.6 0.0
01/11:00am 29.7 27.7 8.7 27 11.7 SSW 9 15 5 8 1017.2 1016.0 0.0
01/10:30am 28.9 27.6 10.1 31 10.7 SSW 7 13 4 7 1017.4 1016.2 0.0
01/10:00am 27.8 26.3 9.1 31 10.4 ESE 7 13 4 7 1017.6 1016.4 0.0
01/09:30am 27.4 26.1 9.3 32 10.1 E 6 11 3 6 1017.7 1016.9 0.0
01/09:00am 26.6 25.1 9.0 33 9.7 ESE 7 13 4 7 1017.6 1016.8 0.0
01/08:30am 25.8 23.0 6.9 30 10.0 SE 11 17 6 9 1017.3 1016.5 0.0
01/08:00am 24.9 21.1 5.7 29 9.9 SE 15 19 8 10 1017.2 1016.4 0.0
01/07:30am 23.4 20.7 5.8 32 9.0 ESE 9 13 5 7 1016.8 1015.9 0.0
01/07:00am 20.7 17.9 5.1 36 7.7 ESE 9 11 5 6 1016.3 1015.4 0.0
01/06:30am 19.2 16.0 5.3 40 6.8 ESE 11 13 6 7 1016.0 1015.1 0.0
01/06:00am 20.2 17.9 5.8 39 7.2 ESE 7 9 4 5 1015.3 1014.5 0.0
01/05:30am 19.4 17.0 5.1 39 7.0 E 7 7 4 4 1014.7 1013.9 0.0
01/05:00am 19.2 16.7 4.6 38 7.1 E 7 9 4 5 1014.3 1013.5 0.0
01/04:30am 20.7 18.3 4.3 34 8.0 ESE 6 7 3 4 1014.0 1013.2 0.0
01/04:00am 22.0 19.5 4.6 32 8.6 SSE 7 9 4 5 1013.7 1012.9 0.0
01/03:30am 23.7 20.0 4.6 29 9.6 S 13 15 7 8 1013.7 1012.9 0.0
01/03:00am 24.6 21.5 5.4 29 9.8 SSE 11 15 6 8 1013.4 1012.6 0.0
01/02:30am 25.3 21.2 6.0 29 10.0 SE 17 20 9 11 1013.5 1012.7 0.0
01/02:00am 26.4 23.7 5.4 26 10.9 S 9 20 5 11 1013.6 1012.8 0.0
01/01:30am 24.2 20.9 6.5 32 9.2 SE 13 15 7 8 1013.5 1012.7 0.0
01/01:00am 22.9 21.4 4.9 31 9.0 SSW 2 7 1 4 1013.6 1012.8 0.0
01/12:30am 21.0 19.0 4.6 34 8.1 SW 4 7 2 4 1013.6 1012.8 0.0
01/12:00am 21.8 20.6 4.4 32 8.6 CALM 0 2 0 1 1013.5 1012.7 0.0
 
Date/Time
EST
Temp
°C
App
Temp
°C
Dew
Point
°C
Rel
Hum
%
Delta-T
°C
Wind Press
QNH
hPa
Press
MSL
hPa
Rain since
9am
mm
Dir  Spd
km/h
Gust
km/h
Spd
kts
Gust
kts
30/11:30pm 23.0 20.6 4.5 30 9.2 ESE 6 11 3 6 1013.5 1012.7 0.0
30/11:00pm 24.6 23.5 4.9 28 10.0 CALM 0 0 0 0 1013.3 1012.5 0.0
30/10:30pm 25.0 23.1 4.7 27 10.3 S 4 4 2 2 1013.3 1012.5 0.0
30/10:00pm 26.4 24.2 5.4 26 10.9 S 6 7 3 4 1013.2 1012.4 0.0
30/09:30pm 27.1 25.3 5.4 25 11.3 SE 4 4 2 2 1013.0 1012.2 0.0
30/09:00pm 27.4 25.5 5.1 24 11.5 SSE 4 6 2 3 1012.7 1011.9 0.0
30/08:30pm 27.8 25.9 4.8 23 11.9 SSE 4 6 2 3 1012.5 1011.7 0.0
30/08:00pm 29.5 27.7 5.6 22 12.6 SE 4 6 2 3 1011.9 1011.0 0.0
30/07:30pm 30.1 28.3 5.4 21 13.1 SE 4 4 2 2 1011.6 1010.7 0.0
30/07:00pm 30.8 29.4 5.3 20 13.5 S 2 4 1 2 1011.1 1010.2 0.0
30/06:30pm 32.1 29.6 4.8 18 14.4 S 7 9 4 5 1010.6 1009.7 0.0
30/06:00pm 33.7 30.4 4.4 16 15.6 SSW 11 15 6 8 1010.3 1009.5 0.0
30/05:30pm 34.6 31.6 4.2 15 16.2 S 9 13 5 7 1010.2 1009.4 0.0
30/05:00pm 34.9 31.2 4.4 15 16.3 SSW 13 20 7 11 1010.1 1009.3 0.0
30/04:30pm 35.3 31.7 4.8 15 16.4 SW 13 22 7 12 1010.0 1009.2 0.0
30/04:00pm 35.4 31.2 3.9 14 16.8 WSW 15 22 8 12 1009.9 1009.1 0.0
30/03:30pm 35.3 33.0 4.8 15 16.4 W 6 15 3 8 1010.0 1009.2 0.0
30/03:00pm 35.6 31.8 4.0 14 16.9 WSW 13 19 7 10 1010.4 1009.6 0.0
30/02:30pm 34.9 32.3 7.9 19 15.2 W 11 19 6 10 1010.9 1010.0 0.0
30/02:00pm 35.2 33.1 9.6 21 14.9 NNW 11 20 6 11 1011.4 1010.5 0.0
30/01:30pm 33.3 30.9 10.0 24 13.5 NNW 13 20 7 11 1012.1 1011.2 0.0
30/01:00pm 32.6 30.1 11.2 27 12.6 NW 15 24 8 13 1012.7 1011.9 0.0
30/12:30pm 32.7 31.3 12.3 28 12.2 NW 11 22 6 12 1013.2 1012.4 0.0
30/12:00pm 31.6 29.9 12.4 31 11.4 N 13 20 7 11 1013.9 1013.1 0.0
30/11:30am 30.8 29.6 12.7 33 10.8 NNW 11 19 6 10 1014.4 1013.6 0.0
30/11:00am 30.2 27.8 12.6 34 10.5 N 17 28 9 15 1014.8 1014.0 0.0
30/10:30am 28.7 26.0 11.7 35 9.9 N 17 26 9 14 1015.2 1014.4 0.0
30/10:00am 28.0 25.0 12.0 37 9.3 NNE 19 32 10 17 1015.6 1014.8 0.0
30/09:30am 26.8 22.3 11.3 38 8.9 NE 26 33 14 18 1015.7 1014.9 0.0
30/09:00am 25.7 20.9 11.8 42 8.0 NE 28 37 15 20 1016.0 1015.1 0.0
30/08:30am 24.5 19.4 11.8 45 7.3 NE 30 37 16 20 1016.0 1015.1 0.0
30/08:00am 23.6 18.6 12.3 49 6.5 NE 30 37 16 20 1015.6 1014.8 0.0
30/07:30am 22.5 18.2 12.2 52 5.9 NE 26 33 14 18 1015.3 1014.5 0.0
30/07:00am 21.3 18.1 11.9 55 5.3 NE 20 28 11 15 1015.1 1014.3 0.0
30/06:30am 20.9 17.8 11.5 55 5.3 ENE 19 24 10 13 1014.8 1014.0 0.0
30/06:00am 21.2 18.2 11.8 55 5.3 NE 19 28 10 15 1014.3 1013.5 0.0
30/05:30am 21.4 16.1 11.1 52 5.7 NE 30 44 16 24 1013.6 1012.8 0.0
30/05:00am 21.8 15.5 10.9 50 6.1 NE 35 46 19 25 1012.8 1012.0 0.0
30/04:30am 22.2 16.3 11.3 50 6.1 NE 33 44 18 24 1012.6 1011.8 0.0
30/04:00am 22.9 15.9 11.3 48 6.5 NE 39 50 21 27 1012.3 1011.4 0.0
30/03:30am 23.1 17.3 11.5 48 6.6 NE 33 46 18 25 1012.1 1011.2 0.0
30/03:00am 23.7 16.7 11.4 46 7.0 NE 39 50 21 27 1012.2 1011.3 0.0
30/02:37am 24.1 18.4 11.8 46 7.0 NE 33 56 18 30 1012.1 1011.2 0.0
30/02:30am 24.1 17.1 11.4 45 7.2 NNE 39 54 21 29 1012.1 1011.2 0.0
30/02:15am 24.6 19.5 11.9 45 7.3 NNE 30 54 16 29 1012.2 1011.3 0.0
30/02:00am 24.9 19.2 11.8 44 7.5 NNE 33 44 18 24 1012.4 1011.6 0.0
30/01:30am 25.7 20.1 12.2 43 7.8 NNE 33 44 18 24 1012.5 1011.7 0.0
30/01:00am 25.4 21.2 9.7 37 8.7 NE 22 28 12 15 1012.8 1012.0 0.0
30/12:30am 26.2 21.4 8.7 33 9.6 NE 24 30 13 16 1013.1 1012.3 0.0
30/12:00am 26.7 21.8 8.6 32 9.9 NE 24 28 13 15 1013.2 1012.4 0.0
 
Date/Time
EST
Temp
°C
App
Temp
°C
Dew
Point
°C
Rel
Hum
%
Delta-T
°C
Wind Press
QNH
hPa
Press
MSL
hPa
Rain since
9am
mm
Dir  Spd
km/h
Gust
km/h
Spd
kts
Gust
kts
29/11:30pm 26.7 22.7 8.2 31 10.1 NE 19 24 10 13 1013.1 1012.3 0.0
29/11:00pm 27.2 22.6 8.1 30 10.4 ENE 22 30 12 16 1012.8 1012.0 0.0
29/10:30pm 27.4 23.3 7.8 29 10.6 ENE 19 26 10 14 1012.8 1012.0 0.0
29/10:00pm 27.9 24.1 7.7 28 11.0 ENE 17 22 9 12 1013.2 1012.4 0.0
29/09:30pm 28.6 24.5 7.8 27 11.4 ENE 19 26 10 14 1013.2 1012.4 0.0
29/09:00pm 29.1 25.3 7.7 26 11.7 ENE 17 24 9 13 1012.9 1012.1 0.0
29/08:30pm 28.8 25.8 6.2 24 12.0 ENE 11 15 6 8 1012.7 1011.9 0.0
29/08:00pm 30.6 27.8 7.1 23 12.8 ENE 11 15 6 8 1012.4 1011.6 0.0
29/07:30pm 30.5 28.3 6.4 22 13.0 ENE 7 11 4 6 1012.0 1011.1 0.0
29/07:00pm 31.7 29.6 6.7 21 13.6 E 7 9 4 5 1011.6 1010.7 0.0
29/06:30pm 32.5 30.6 6.7 20 14.1 ESE 6 6 3 3 1011.3 1010.4 0.0
29/06:00pm 34.0 32.4 6.3 18 15.2 ESE 4 9 2 5 1011.0 1010.1 0.0
29/05:30pm 35.0 33.4 6.3 17 15.8 NW 4 9 2 5 1010.7 1009.8 0.0
29/05:00pm 34.7 32.7 6.1 17 15.7 NNW 6 17 3 9 1010.4 1009.6 0.0
29/04:30pm 35.5 34.0 6.7 17 16.0 SSW 4 11 2 6 1010.4 1009.6 0.0
29/04:00pm 34.8 32.6 6.2 17 15.7 NNE 7 15 4 8 1010.6 1009.7 0.0
29/03:30pm 35.2 33.2 7.3 18 15.6 NE 7 15 4 8 1010.6 1009.7 0.0
29/03:00pm 35.3 32.0 6.6 17 15.9 NE 13 24 7 13 1011.0 1010.1 0.0
29/02:30pm 34.7 31.7 7.7 19 15.2 NE 13 26 7 14 1011.3 1010.4 0.0
29/02:00pm 34.4 31.5 8.2 20 14.8 NNE 13 24 7 13 1011.8 1010.9 0.0
29/01:30pm 33.9 30.5 7.8 20 14.6 NNE 15 28 8 15 1012.7 1011.9 0.0
29/01:00pm 34.5 32.0 9.7 22 14.4 N 13 22 7 12 1013.5 1012.7 0.0
29/12:30pm 33.2 30.4 8.6 22 13.9 NE 13 24 7 13 1014.4 1013.6 0.0
29/12:00pm 32.9 31.1 12.0 28 12.4 NNE 13 24 7 13 1015.1 1014.3 0.0
29/11:30am 32.4 29.4 12.6 30 11.9 NE 20 30 11 16 1015.8 1015.0 0.0
29/11:00am 31.2 28.2 12.5 31 11.1 NE 20 30 11 16 1016.3 1015.4 0.0
29/10:30am 30.0 27.3 12.9 35 10.2 NNE 19 26 10 14 1016.8 1015.9 0.0
29/10:00am 29.3 27.0 13.1 37 9.7 NNE 17 28 9 15 1017.3 1016.5 0.0
29/09:30am 28.1 24.9 13.2 39 8.9 NNE 22 35 12 19 1017.4 1016.6 0.0
29/09:00am 27.1 23.6 13.4 42 8.1 NNE 24 33 13 18 1017.2 1016.4 0.0
29/08:30am 25.9 21.6 13.1 45 7.5 NNE 28 35 15 19 1016.9 1016.0 0.0
29/08:28am 25.8 21.8 13.0 45 7.5 NE 26 35 14 19 1016.9 1016.0 0.0
29/08:00am 21.3 18.0 4.8 34 8.2 NE 11 15 6 8 1016.9 1016.0 0.0
29/07:30am 19.4 15.5 0.9 29 8.4 ENE 11 15 6 8 1016.5 1015.6 0.0
29/07:00am 17.4 13.2 -0.8 29 7.8 E 11 13 6 7 1016.2 1015.3 0.0
29/06:30am 15.8 11.5 -1.7 30 7.3 E 11 13 6 7 1015.7 1014.9 0.0
29/06:00am 16.7 11.2 -2.4 27 7.9 ESE 17 26 9 14 1015.4 1014.6 0.0
29/05:30am 17.0 11.8 -3.1 25 8.2 ESE 15 19 8 10 1014.8 1014.0 0.0
29/05:00am 18.3 13.0 -3.8 22 9.0 ESE 15 20 8 11 1014.6 1013.8 0.0
29/04:30am 18.6 13.3 -3.5 22 9.1 ESE 15 20 8 11 1014.4 1013.6 0.0
29/04:00am 19.1 13.0 -3.7 21 9.4 SE 19 24 10 13 1014.0 1013.2 0.0
29/03:30am 19.9 13.6 -4.4 19 9.9 SE 20 26 11 14 1014.3 1013.5 0.0
29/03:00am 20.5 14.2 -3.9 19 10.1 SE 20 28 11 15 1014.7 1013.9 0.0
29/02:30am 21.2 14.9 -4.0 18 10.5 SE 20 26 11 14 1015.1 1014.3 0.0
29/02:00am 17.2 13.0 -3.5 24 8.4 SE 9 11 5 6 1015.4 1014.6 0.0
29/01:30am 19.1 15.5 -3.7 21 9.4 ESE 6 7 3 4 1015.7 1014.9 0.0
29/01:00am 19.9 15.3 -3.7 20 9.8 SSE 11 11 6 6 1016.0 1015.1 0.0
29/12:30am 20.0 15.4 -4.3 19 9.9 SSE 11 13 6 7 1016.3 1015.4 0.0
29/12:00am 19.2 14.9 -5.0 19 9.7 SSE 9 11 5 6 1016.6 1015.7 0.0
 
Date/Time
EST
Temp
°C
App
Temp
°C
Dew
Point
°C
Rel
Hum
%
Delta-T
°C
Wind Press
QNH
hPa
Press
MSL
hPa
Rain since
9am
mm
Dir  Spd
km/h
Gust
km/h
Spd
kts
Gust
kts
28/11:30pm 20.4 15.7 -4.7 18 10.2 SSE 11 13 6 7 1016.7 1015.8 0.0
28/11:00pm 20.9 15.4 -5.8 16 10.7 SSE 15 17 8 9 1016.7 1015.8 0.0
28/10:30pm 21.1 15.9 -6.5 15 10.9 SSE 13 15 7 8 1017.0 1016.2 0.0
28/10:00pm 22.1 16.6 -9.7 11 11.9 SSE 13 15 7 8 1017.0 1016.2 0.0
28/09:30pm 21.1 16.0 -9.4 12 11.4 SE 11 13 6 7 1016.8 1015.9 0.0
28/09:00pm 23.1 17.2 -10.1 10 12.5 SSE 15 17 8 9 1016.6 1015.7 0.0
28/08:30pm 22.8 17.6 -10.4 10 12.4 SE 11 13 6 7 1016.2 1015.3 0.0
28/08:00pm 24.1 18.5 -10.7 9 13.1 SSE 13 17 7 9 1016.1 1015.2 0.0
28/07:30pm 24.6 18.7 -10.3 9 13.3 SSE 15 15 8 8 1015.8 1015.0 0.0
28/07:00pm 25.1 19.6 -10.0 9 13.5 SE 13 15 7 8 1015.5 1014.7 0.0
28/06:30pm 27.5 21.9 -11.3 7 15.0 SE 13 15 7 8 1015.1 1014.3 0.0
28/06:00pm 30.5 24.5 -11.1 6 16.6 SE 15 20 8 11 1014.8 1014.0 0.0
28/05:30pm 31.8 27.0 -10.2 6 17.2 SE 9 17 5 9 1014.5 1013.7 0.0
28/05:00pm 31.9 26.4 -10.1 6 17.3 SE 13 19 7 10 1014.3 1013.5 0.0
28/04:30pm 32.3 28.5 -9.8 6 17.5 S 4 9 2 5 1014.2 1013.4 0.0
28/04:00pm 32.1 27.3 -9.9 6 17.4 SSE 9 20 5 11 1014.3 1013.5 0.0
28/03:30pm 32.4 27.7 -9.7 6 17.5 S 9 15 5 8 1014.4 1013.6 0.0
28/03:00pm 32.8 27.3 -9.4 6 17.7 SSE 13 20 7 11 1014.8 1014.0 0.0
28/02:30pm 32.3 27.9 -6.1 8 17.0 S 9 17 5 9 1015.2 1014.4 0.0
28/02:00pm 31.5 27.4 -6.7 8 16.6 SSE 7 17 4 9 1015.6 1014.8 0.0
28/01:30pm 30.9 26.9 -5.6 9 16.1 E 7 13 4 7 1016.3 1015.4 0.0
28/01:00pm 29.9 26.0 -6.4 9 15.6 ESE 6 15 3 8 1017.0 1016.2 0.0
28/12:30pm 29.7 25.8 -5.1 10 15.3 SSW 7 17 4 9 1017.6 1016.8 0.0

Other formats

Comma delimited format used in spreadsheet applications
http://www.bom.gov.au/fwo/IDQ60801/IDQ60801.94342.axf

JavaScript Object Notation format (JSON) in row-major order
http://www.bom.gov.au/fwo/IDQ60801/IDQ60801.94342.json

Data quality

Most of these data are generated automatically and are frequently updated. Quality checks on data are not normally performed. It is possible for incorrect values to appear. Refer to information at About Latest Weather Observations and please check the disclaimer before using these data.